createdAt,value
2024-05-09T00:00:00.946Z,101561.16
2024-05-09T00:02:33.179Z,101561.55
2024-05-09T00:05:04.927Z,101560.13
2024-05-09T00:07:36.458Z,101555.25
2024-05-09T00:10:14.480Z,101555.69
2024-05-09T00:12:53.271Z,101557.45
2024-05-09T00:15:24.444Z,101557.81
2024-05-09T00:17:55.891Z,101555.48
2024-05-09T00:20:35.306Z,101560.58
2024-05-09T00:23:12.459Z,101564.75
2024-05-09T00:25:45.501Z,101558.59
2024-05-09T00:28:16.944Z,101561.50
2024-05-09T00:30:51.833Z,101562.23
2024-05-09T00:33:23.793Z,101565.71
2024-05-09T00:35:55.162Z,101571.52
2024-05-09T00:38:26.427Z,101565.97
2024-05-09T00:40:57.823Z,101568.36
2024-05-09T00:43:29.099Z,101569.99
2024-05-09T00:46:01.708Z,101567.32
2024-05-09T00:48:33.931Z,101573.84
2024-05-09T00:51:06.534Z,101569.51
2024-05-09T00:53:38.035Z,101569.32
2024-05-09T00:56:11.351Z,101567.06
2024-05-09T00:58:43.692Z,101564.70
2024-05-09T01:01:18.039Z,101563.67
2024-05-09T01:03:51.303Z,101564.18
2024-05-09T01:06:23.513Z,101571.04
2024-05-09T01:08:54.991Z,101571.60
2024-05-09T01:11:33.428Z,101569.24
2024-05-09T01:14:04.764Z,101572.88
2024-05-09T01:16:36.198Z,101570.55
2024-05-09T01:19:20.843Z,101570.58
2024-05-09T01:21:52.287Z,101568.82
2024-05-09T01:24:23.572Z,101569.16
2024-05-09T01:26:58.261Z,101564.11
2024-05-09T01:29:45.847Z,101565.20
2024-05-09T01:32:20.054Z,101565.55
2024-05-09T01:34:52.312Z,101565.90
2024-05-09T01:37:26.100Z,101559.84
2024-05-09T01:40:00.287Z,101561.83
2024-05-09T01:42:34.464Z,101560.96
2024-05-09T01:45:08.673Z,101560.27
2024-05-09T01:47:39.975Z,101562.30
2024-05-09T01:50:13.381Z,101567.17
2024-05-09T01:52:47.578Z,101567.48
2024-05-09T01:55:19.299Z,101566.55
2024-05-09T01:57:50.601Z,101569.61
2024-05-09T02:00:33.747Z,101569.08
2024-05-09T02:03:15.682Z,101567.48
2024-05-09T02:05:51.437Z,101566.96
2024-05-09T02:08:22.315Z,101561.39
2024-05-09T02:10:54.405Z,101559.24
2024-05-09T02:13:25.689Z,101556.04
2024-05-09T02:15:57.903Z,101563.44
2024-05-09T02:18:29.178Z,101560.95
2024-05-09T02:21:00.671Z,101559.35
2024-05-09T02:23:32.329Z,101562.05
2024-05-09T02:26:03.672Z,101562.43
2024-05-09T02:28:34.858Z,101562.09
2024-05-09T02:31:06.342Z,101562.63
2024-05-09T02:33:38.007Z,101559.73
2024-05-09T02:36:10.125Z,101562.80
2024-05-09T02:38:41.688Z,101567.32
2024-05-09T02:41:12.997Z,101564.96
2024-05-09T02:43:44.369Z,101559.73
2024-05-09T02:46:15.712Z,101560.63
2024-05-09T02:48:47.135Z,101561.86
2024-05-09T02:51:18.544Z,101562.79
2024-05-09T02:53:49.674Z,101564.59
2024-05-09T02:56:21.005Z,101564.40
2024-05-09T02:58:52.214Z,101561.70
2024-05-09T03:01:23.674Z,101564.23
2024-05-09T03:03:54.987Z,101567.47
2024-05-09T03:06:26.432Z,101567.83
2024-05-09T03:08:57.640Z,101567.46
2024-05-09T03:11:29.258Z,101568.34
2024-05-09T03:14:00.805Z,101568.89
2024-05-09T03:16:32.044Z,101568.89
2024-05-09T03:19:03.462Z,101571.05
2024-05-09T03:21:38.302Z,101571.05
2024-05-09T03:24:11.295Z,101572.85
2024-05-09T03:26:43.189Z,101577.55
2024-05-09T03:29:14.467Z,101576.27
2024-05-09T03:31:45.802Z,101571.58
2024-05-09T03:34:17.310Z,101573.02
2024-05-09T03:36:48.512Z,101565.83
2024-05-09T03:39:20.038Z,101564.20
2024-05-09T03:41:51.368Z,101565.46
2024-05-09T03:44:22.659Z,101563.30
2024-05-09T03:46:53.911Z,101561.88
2024-05-09T03:49:25.624Z,101561.86
2024-05-09T03:51:56.960Z,101556.09
2024-05-09T03:54:28.480Z,101558.59
2024-05-09T03:56:59.706Z,101551.40
2024-05-09T03:59:31.203Z,101555.54
2024-05-09T04:02:02.552Z,101557.70
2024-05-09T04:04:34.001Z,101556.42
2024-05-09T04:07:05.509Z,101561.83
2024-05-09T04:09:36.923Z,101565.64
2024-05-09T04:12:09.704Z,101569.96
2024-05-09T04:14:42.737Z,101568.52
2024-05-09T04:17:13.975Z,101570.52
2024-05-09T04:19:45.259Z,101573.94
2024-05-09T04:22:16.987Z,101573.40
2024-05-09T04:24:49.316Z,101570.71
2024-05-09T04:27:20.767Z,101574.33
2024-05-09T04:29:51.904Z,101573.05
2024-05-09T04:32:23.541Z,101571.06
2024-05-09T04:34:54.834Z,101574.88
2024-05-09T04:37:26.196Z,101574.89
2024-05-09T04:39:57.862Z,101572.20
2024-05-09T04:42:29.432Z,101566.60
2024-05-09T04:45:00.665Z,101569.46
2024-05-09T04:47:32.109Z,101566.96
2024-05-09T04:50:03.668Z,101566.23
2024-05-09T04:52:35.787Z,101562.43
2024-05-09T04:55:08.155Z,101562.60
2024-05-09T04:57:39.756Z,101564.95
2024-05-09T05:00:14.988Z,101562.77
2024-05-09T05:02:53.301Z,101567.45
2024-05-09T05:05:24.828Z,101569.77
2024-05-09T05:07:56.285Z,101572.45
2024-05-09T05:10:33.832Z,101572.09
2024-05-09T05:13:20.812Z,101573.34
2024-05-09T05:15:56.928Z,101574.59
2024-05-09T05:18:29.826Z,101571.88
2024-05-09T05:21:01.339Z,101574.39
2024-05-09T05:23:32.841Z,101571.85
2024-05-09T05:26:04.344Z,101571.88
2024-05-09T05:28:35.628Z,101571.84
2024-05-09T05:31:06.993Z,101569.60
2024-05-09T05:33:38.464Z,101571.57
2024-05-09T05:36:11.450Z,101574.23
2024-05-09T05:38:43.050Z,101576.00
2024-05-09T05:41:14.702Z,101572.85
2024-05-09T05:43:46.023Z,101572.42
2024-05-09T05:46:17.323Z,101572.95
2024-05-09T05:48:49.092Z,101578.87
2024-05-09T05:51:20.620Z,101575.13
2024-05-09T05:53:52.072Z,101574.49
2024-05-09T05:56:23.405Z,101576.06
2024-05-09T05:58:54.815Z,101574.58
2024-05-09T06:01:26.350Z,101575.94
2024-05-09T06:03:57.740Z,101572.83
2024-05-09T06:06:29.102Z,101573.94
2024-05-09T06:09:00.411Z,101577.17
2024-05-09T06:11:32.059Z,101576.77
2024-05-09T06:14:05.201Z,101579.37
2024-05-09T06:16:36.501Z,101581.98
2024-05-09T06:19:07.922Z,101579.77
2024-05-09T06:21:39.244Z,101582.36
2024-05-09T06:24:10.427Z,101575.98
2024-05-09T06:26:46.150Z,101575.70
2024-05-09T06:29:17.542Z,101580.34
2024-05-09T06:31:48.909Z,101575.05
2024-05-09T06:34:21.497Z,101571.55
2024-05-09T06:36:51.598Z,101573.48
2024-05-09T06:39:23.177Z,101568.18
2024-05-09T06:41:54.386Z,101562.59
2024-05-09T06:44:25.742Z,101562.80
2024-05-09T06:46:59.759Z,101562.69
2024-05-09T06:49:32.565Z,101565.23
2024-05-09T06:52:04.359Z,101558.77
2024-05-09T06:54:35.570Z,101557.88
2024-05-09T06:57:07.526Z,101557.38
2024-05-09T06:59:39.266Z,101557.60
2024-05-09T07:02:10.910Z,101555.52
2024-05-09T07:04:42.250Z,101556.23
2024-05-09T07:07:13.618Z,101556.27
2024-05-09T07:09:45.000Z,101555.26
2024-05-09T07:12:16.431Z,101555.23
2024-05-09T07:14:47.948Z,101551.00
2024-05-09T07:17:19.993Z,101545.25
2024-05-09T07:19:52.104Z,101549.50
2024-05-09T07:22:25.157Z,101545.05
2024-05-09T07:24:56.439Z,101542.85
2024-05-09T07:27:28.793Z,101545.52
2024-05-09T07:29:59.113Z,101545.92
2024-05-09T07:32:30.630Z,101544.95
2024-05-09T07:35:02.388Z,101545.54
2024-05-09T07:37:33.688Z,101545.20
2024-05-09T07:40:07.487Z,101550.81
2024-05-09T07:42:39.053Z,101550.07
2024-05-09T07:45:29.673Z,101547.80
2024-05-09T07:52:32.656Z,101552.49
2024-05-09T07:53:39.961Z,101550.77
2024-05-09T07:56:18.559Z,101542.43
2024-05-09T07:58:52.359Z,101547.96
2024-05-09T08:01:27.605Z,101543.27
2024-05-09T08:03:59.917Z,101540.23
2024-05-09T08:06:31.308Z,101538.82
2024-05-09T08:09:08.037Z,101542.77
2024-05-09T08:11:42.692Z,101540.77
2024-05-09T08:14:14.234Z,101538.02
2024-05-09T08:16:46.205Z,101536.73
2024-05-09T08:19:19.779Z,101530.98
2024-05-09T08:21:53.049Z,101527.81
2024-05-09T08:24:24.830Z,101530.45
2024-05-09T08:26:56.353Z,101529.96
2024-05-09T08:29:27.782Z,101522.89
2024-05-09T08:31:59.424Z,101522.17
2024-05-09T08:34:31.646Z,101525.52
2024-05-09T08:37:10.155Z,101517.27
2024-05-09T08:39:46.920Z,101520.36
2024-05-09T08:42:23.428Z,101520.27
2024-05-09T08:44:54.837Z,101522.20
2024-05-09T08:47:27.366Z,101521.25
2024-05-09T08:50:01.623Z,101521.03
2024-05-09T08:52:33.158Z,101522.52
2024-05-09T08:55:04.923Z,101526.52
2024-05-09T08:57:37.137Z,101526.41
2024-05-09T09:00:14.864Z,101529.00
2024-05-09T09:02:50.272Z,101525.30
2024-05-09T09:05:24.789Z,101519.80
2024-05-09T09:07:56.163Z,101518.53
2024-05-09T09:10:32.421Z,101523.63
2024-05-09T09:13:06.816Z,101521.96
2024-05-09T09:15:49.149Z,101526.83
2024-05-09T09:18:20.916Z,101527.98
2024-05-09T09:21:10.082Z,101528.71
2024-05-09T09:23:52.385Z,101529.39
2024-05-09T09:26:24.372Z,101529.98
2024-05-09T09:29:02.520Z,101536.39
2024-05-09T09:31:34.054Z,101536.23
2024-05-09T09:34:09.496Z,101531.68
2024-05-09T09:36:41.652Z,101534.65
2024-05-09T09:39:17.469Z,101533.86
2024-05-09T09:41:50.035Z,101528.60
2024-05-09T09:44:22.279Z,101529.40
2024-05-09T09:46:57.093Z,101533.77
2024-05-09T09:49:30.564Z,101534.64
2024-05-09T09:52:02.872Z,101530.69
2024-05-09T09:54:34.479Z,101530.61
2024-05-09T09:57:07.792Z,101531.02
2024-05-09T09:59:43.109Z,101526.91
2024-05-09T10:02:14.715Z,101524.34
2024-05-09T10:04:46.377Z,101517.98
2024-05-09T10:07:19.850Z,101512.35
2024-05-09T10:09:58.635Z,101518.55
2024-05-09T10:12:30.064Z,101520.07
2024-05-09T10:15:07.016Z,101517.41
2024-05-09T10:17:38.341Z,101514.11
2024-05-09T10:20:18.343Z,101518.16
2024-05-09T10:22:53.336Z,101516.28
2024-05-09T10:25:25.326Z,101513.24
2024-05-09T10:27:58.533Z,101513.16
2024-05-09T10:30:35.771Z,101514.86
2024-05-09T10:33:12.066Z,101508.35
2024-05-09T10:36:01.675Z,101510.71
2024-05-09T10:38:38.661Z,101509.02
2024-05-09T10:41:11.093Z,101508.42
2024-05-09T10:43:43.430Z,101512.98
2024-05-09T10:46:14.748Z,101509.63
2024-05-09T10:48:48.281Z,101510.83
2024-05-09T10:51:21.228Z,101517.59
2024-05-09T10:53:52.916Z,101516.56
2024-05-09T10:56:24.611Z,101507.50
2024-05-09T10:58:56.224Z,101499.73
2024-05-09T11:01:28.255Z,101492.88
2024-05-09T11:04:01.382Z,101492.08
2024-05-09T11:06:34.799Z,101485.67
2024-05-09T11:09:06.750Z,101483.70
2024-05-09T11:11:38.366Z,101485.40
2024-05-09T11:14:15.182Z,101482.66
2024-05-09T11:16:46.364Z,101484.70
2024-05-09T11:19:19.431Z,101485.23
2024-05-09T11:21:54.161Z,101480.65
2024-05-09T11:24:25.765Z,101482.30
2024-05-09T11:26:57.668Z,101479.59
2024-05-09T11:29:40.090Z,101478.69
2024-05-09T11:32:13.338Z,101474.50
2024-05-09T11:34:44.843Z,101473.02
2024-05-09T11:37:16.548Z,101468.96
2024-05-09T11:39:48.538Z,101466.19
2024-05-09T11:42:20.483Z,101465.47
2024-05-09T11:44:51.995Z,101461.79
2024-05-09T11:47:23.383Z,101462.98
2024-05-09T11:49:56.013Z,101458.19
2024-05-09T11:52:27.829Z,101459.73
2024-05-09T11:54:59.303Z,101459.58
2024-05-09T11:57:31.137Z,101464.45
2024-05-09T12:00:03.216Z,101461.73
2024-05-09T12:02:36.127Z,101457.60
2024-05-09T12:05:08.246Z,101452.58
2024-05-09T12:07:39.705Z,101448.45
2024-05-09T12:10:16.610Z,101451.41
2024-05-09T12:12:51.177Z,101449.39
2024-05-09T12:15:22.808Z,101444.18
2024-05-09T12:17:55.866Z,101445.27
2024-05-09T12:20:35.817Z,101444.02
2024-05-09T12:23:10.837Z,101448.15
2024-05-09T12:25:42.675Z,101443.84
2024-05-09T12:28:14.346Z,101443.03
2024-05-09T12:30:46.153Z,101448.29
2024-05-09T12:33:19.535Z,101443.20
2024-05-09T12:35:51.579Z,101432.40
2024-05-09T12:38:23.116Z,101434.77
2024-05-09T12:40:54.814Z,101430.67
2024-05-09T12:43:26.671Z,101427.92
2024-05-09T12:45:58.259Z,101426.11
2024-05-09T12:48:30.568Z,101422.16
2024-05-09T12:51:02.051Z,101419.21
2024-05-09T12:53:33.525Z,101414.91
2024-05-09T12:56:06.652Z,101410.48
2024-05-09T12:58:39.645Z,101408.17
2024-05-09T13:01:10.900Z,101402.60
2024-05-09T13:03:42.418Z,101400.52
2024-05-09T13:06:14.375Z,101399.67
2024-05-09T13:08:45.648Z,101394.61
2024-05-09T13:11:17.037Z,101390.45
2024-05-09T13:13:48.255Z,101389.15
2024-05-09T13:16:19.681Z,101385.02
2024-05-09T13:18:51.226Z,101382.73
2024-05-09T13:21:22.994Z,101379.35
2024-05-09T13:23:54.882Z,101375.59
2024-05-09T13:26:25.674Z,101372.30
2024-05-09T13:28:57.830Z,101366.95
2024-05-09T13:31:32.059Z,101360.52
2024-05-09T13:34:03.486Z,101360.49
2024-05-09T13:36:34.904Z,101357.14
2024-05-09T13:39:09.128Z,101356.05
2024-05-09T13:41:40.485Z,101347.09
2024-05-09T13:44:11.948Z,101344.82
2024-05-09T13:46:43.220Z,101344.38
2024-05-09T13:49:16.453Z,101342.30
2024-05-09T13:51:47.766Z,101344.08
2024-05-09T13:54:21.894Z,101341.74
2024-05-09T13:56:54.093Z,101337.86
2024-05-09T13:59:25.362Z,101337.15
2024-05-09T14:01:56.739Z,101334.48
2024-05-09T14:04:28.583Z,101326.59
2024-05-09T14:07:00.120Z,101322.10
2024-05-09T14:09:31.574Z,101321.27
2024-05-09T14:12:03.027Z,101315.84
2024-05-09T14:14:34.763Z,101316.25
2024-05-09T14:17:06.492Z,101313.80
2024-05-09T14:19:37.774Z,101311.73
2024-05-09T14:22:09.411Z,101304.55
2024-05-09T14:24:40.859Z,101304.60
2024-05-09T14:27:12.298Z,101296.23
2024-05-09T14:29:43.741Z,101296.05
2024-05-09T14:32:15.559Z,101297.47
2024-05-09T14:34:47.399Z,101292.25
2024-05-09T14:37:18.798Z,101293.36
2024-05-09T14:39:50.245Z,101290.34
2024-05-09T14:42:22.368Z,101289.45
2024-05-09T14:44:53.503Z,101285.11
2024-05-09T14:47:24.859Z,101283.58
2024-05-09T14:49:56.245Z,101280.39
2024-05-09T14:52:27.496Z,101278.12
2024-05-09T14:55:00.710Z,101274.13
2024-05-09T14:57:32.851Z,101273.48
2024-05-09T15:00:08.970Z,101270.73
2024-05-09T15:02:42.966Z,101266.11
2024-05-09T15:05:14.563Z,101258.95
2024-05-09T15:07:46.571Z,101259.45
2024-05-09T15:10:26.547Z,101258.98
2024-05-09T15:13:05.096Z,101253.27
2024-05-09T15:15:36.651Z,101251.08
2024-05-09T15:18:08.888Z,101248.08
2024-05-09T15:20:41.037Z,101246.02
2024-05-09T15:23:12.377Z,101243.11
2024-05-09T15:25:45.148Z,101246.08
2024-05-09T15:28:16.882Z,101249.31
2024-05-09T15:30:48.425Z,101247.79
2024-05-09T15:33:20.149Z,101242.00
2024-05-09T15:35:53.272Z,101238.01
2024-05-09T15:38:26.108Z,101235.70
2024-05-09T15:40:57.449Z,101232.83
2024-05-09T15:43:29.038Z,101233.80
2024-05-09T15:46:00.751Z,101235.44
2024-05-09T15:48:32.355Z,101229.90
2024-05-09T15:51:03.709Z,101225.27
2024-05-09T15:53:35.771Z,101216.32
2024-05-09T15:56:10.729Z,101216.00
2024-05-09T15:58:42.344Z,101216.91
2024-05-09T16:01:14.744Z,101218.63
2024-05-09T16:03:46.753Z,101218.84
2024-05-09T16:06:19.377Z,101210.79
2024-05-09T16:08:50.954Z,101215.48
2024-05-09T16:11:23.261Z,101210.36
2024-05-09T16:13:55.163Z,101204.33
2024-05-09T16:16:27.261Z,101202.94
2024-05-09T16:18:59.121Z,101205.52
2024-05-09T16:21:30.521Z,101200.83
2024-05-09T16:24:02.208Z,101203.30
2024-05-09T16:26:33.683Z,101201.64
2024-05-09T16:29:05.400Z,101198.63
2024-05-09T16:31:37.761Z,101202.58
2024-05-09T16:34:10.478Z,101199.02
2024-05-09T16:36:43.581Z,101202.92
2024-05-09T16:39:14.902Z,101205.36
2024-05-09T16:41:46.432Z,101202.54
2024-05-09T16:44:17.701Z,101206.16
2024-05-09T16:46:49.049Z,101203.64
2024-05-09T16:49:20.798Z,101203.70
2024-05-09T16:51:52.204Z,101198.33
2024-05-09T16:54:23.518Z,101197.46
2024-05-09T16:56:55.007Z,101189.09
2024-05-09T16:59:26.518Z,101191.46
2024-05-09T17:01:58.805Z,101187.70
2024-05-09T17:04:29.493Z,101189.70
2024-05-09T17:07:01.613Z,101184.73
2024-05-09T17:09:32.286Z,101185.98
2024-05-09T17:12:04.231Z,101184.22
2024-05-09T17:14:35.423Z,101183.42
2024-05-09T17:17:09.051Z,101177.91
2024-05-09T17:19:42.170Z,101179.73
2024-05-09T17:22:13.820Z,101178.70
2024-05-09T17:24:45.188Z,101172.02
2024-05-09T17:27:24.866Z,101172.15
2024-05-09T17:30:17.933Z,101170.45
2024-05-09T17:33:14.042Z,101174.00
2024-05-09T17:36:04.758Z,101170.74
2024-05-09T17:38:54.514Z,101173.92
2024-05-09T17:41:44.189Z,101174.13
2024-05-09T17:44:33.446Z,101180.73
2024-05-09T17:47:23.291Z,101171.35
2024-05-09T17:49:59.232Z,101167.28
2024-05-09T17:52:30.569Z,101166.02
2024-05-09T17:55:02.014Z,101162.08
2024-05-09T17:57:33.796Z,101162.36
2024-05-09T18:00:11.128Z,101165.38
2024-05-09T18:02:46.425Z,101159.33
2024-05-09T18:05:17.953Z,101163.02
2024-05-09T18:07:49.581Z,101165.16
2024-05-09T18:10:26.001Z,101162.09
2024-05-09T18:13:05.198Z,101160.38
2024-05-09T18:15:37.189Z,101162.49
2024-05-09T18:18:19.796Z,101160.27
2024-05-09T18:20:52.324Z,101163.52
2024-05-09T18:23:24.014Z,101160.52
2024-05-09T18:25:57.094Z,101164.34
2024-05-09T18:28:30.504Z,101160.48
2024-05-09T18:31:02.499Z,101159.98
2024-05-09T18:33:35.568Z,101165.34
2024-05-09T18:36:10.099Z,101166.75
2024-05-09T18:38:42.207Z,101168.00
2024-05-09T18:41:13.484Z,101172.06
2024-05-09T18:43:45.613Z,101170.34
2024-05-09T18:46:20.075Z,101178.51
2024-05-09T18:48:51.916Z,101176.58
2024-05-09T18:51:23.570Z,101179.52
2024-05-09T18:53:55.517Z,101179.74
2024-05-09T18:56:27.976Z,101175.81
2024-05-09T18:58:58.614Z,101177.92
2024-05-09T19:01:30.484Z,101176.84
2024-05-09T19:04:02.486Z,101179.05
2024-05-09T19:06:36.035Z,101180.40
2024-05-09T19:09:07.329Z,101181.95
2024-05-09T19:11:39.812Z,101183.24
2024-05-09T19:14:09.915Z,101181.83
2024-05-09T19:16:42.067Z,101185.53
2024-05-09T19:19:15.417Z,101187.95
2024-05-09T19:21:47.223Z,101185.95
2024-05-09T19:24:18.660Z,101183.40
2024-05-09T19:26:52.803Z,101185.00
2024-05-09T19:29:24.880Z,101185.41
2024-05-09T19:31:56.945Z,101185.58
2024-05-09T19:34:28.519Z,101189.98
2024-05-09T19:37:02.389Z,101194.93
2024-05-09T19:39:34.388Z,101190.96
2024-05-09T19:42:06.856Z,101197.32
2024-05-09T19:44:38.262Z,101195.39
2024-05-09T19:47:09.971Z,101194.63
2024-05-09T19:49:42.359Z,101196.73
2024-05-09T19:52:21.340Z,101198.53
2024-05-09T19:55:01.281Z,101196.72
2024-05-09T19:57:33.137Z,101199.88
2024-05-09T20:00:06.063Z,101199.96
2024-05-09T20:02:40.976Z,101200.52
2024-05-09T20:05:13.182Z,101197.33
2024-05-09T20:07:45.829Z,101198.02
2024-05-09T20:10:23.767Z,101201.96
2024-05-09T20:12:58.557Z,101200.29
2024-05-09T20:15:30.870Z,101197.49
2024-05-09T20:18:06.122Z,101199.23
2024-05-09T20:20:42.405Z,101195.86
2024-05-09T20:23:15.922Z,101193.80
2024-05-09T20:25:47.183Z,101195.00
2024-05-09T20:28:19.149Z,101190.87
2024-05-09T20:30:52.144Z,101191.78
2024-05-09T20:33:23.612Z,101189.54
2024-05-09T20:35:59.374Z,101193.46
2024-05-09T20:38:31.886Z,101191.33
2024-05-09T20:41:03.971Z,101195.48
2024-05-09T20:43:35.283Z,101187.47
2024-05-09T20:46:06.886Z,101189.19
2024-05-09T20:48:38.374Z,101187.02
2024-05-09T20:51:10.537Z,101187.89
2024-05-09T20:53:42.472Z,101190.27
2024-05-09T20:56:13.968Z,101192.79
2024-05-09T20:58:45.518Z,101189.21
2024-05-09T21:01:17.104Z,101188.55
2024-05-09T21:03:49.280Z,101187.41
2024-05-09T21:06:22.070Z,101185.61
2024-05-09T21:08:53.616Z,101178.45
2024-05-09T21:11:25.492Z,101184.48
2024-05-09T21:13:57.186Z,101183.08
2024-05-09T21:16:28.855Z,101181.64
2024-05-09T21:19:00.482Z,101179.52
2024-05-09T21:21:39.042Z,101188.30
2024-05-09T21:24:10.538Z,101184.88
2024-05-09T21:26:42.064Z,101184.06
2024-05-09T21:29:13.846Z,101189.53
2024-05-09T21:31:45.409Z,101188.67
2024-05-09T21:34:16.989Z,101189.45
2024-05-09T21:36:48.974Z,101190.11
2024-05-09T21:39:24.071Z,101189.39
2024-05-09T21:42:01.410Z,101185.78
2024-05-09T21:44:32.905Z,101185.65
2024-05-09T21:47:06.095Z,101184.20
2024-05-09T21:49:47.732Z,101186.95
2024-05-09T21:52:31.038Z,101186.71
2024-05-09T21:55:02.628Z,101189.85
2024-05-09T21:57:34.490Z,101188.73
2024-05-09T22:00:58.910Z,101181.24
2024-05-09T22:04:07.240Z,101183.29
2024-05-09T22:06:39.001Z,101185.04
2024-05-09T22:09:10.375Z,101184.02
2024-05-09T22:11:41.787Z,101186.52
2024-05-09T22:14:13.403Z,101180.65
2024-05-09T22:16:44.931Z,101182.73
2024-05-09T22:19:16.853Z,101187.85
2024-05-09T22:21:48.864Z,101183.85
2024-05-09T22:24:20.712Z,101180.48
2024-05-09T22:26:54.915Z,101179.98
2024-05-09T22:29:26.971Z,101176.55
2024-05-09T22:31:58.990Z,101176.91
2024-05-09T22:34:31.248Z,101179.84
2024-05-09T22:37:03.446Z,101181.26
2024-05-09T22:39:35.567Z,101176.39
2024-05-09T22:42:07.871Z,101178.77
2024-05-09T22:44:39.702Z,101177.38
2024-05-09T22:47:11.686Z,101175.00
2024-05-09T22:49:43.533Z,101175.98
2024-05-09T22:52:15.063Z,101175.48
2024-05-09T22:54:46.516Z,101174.78
2024-05-09T22:57:17.708Z,101171.84
2024-05-09T22:59:49.008Z,101176.75
2024-05-09T23:02:20.493Z,101175.93
2024-05-09T23:04:52.009Z,101174.15
2024-05-09T23:07:23.367Z,101175.23
2024-05-09T23:09:54.745Z,101172.45
2024-05-09T23:12:26.036Z,101172.08
2024-05-09T23:14:57.310Z,101173.14
2024-05-09T23:17:28.669Z,101172.02
2024-05-09T23:20:00.282Z,101170.04
2024-05-09T23:22:31.882Z,101167.13
2024-05-09T23:25:03.267Z,101167.13
2024-05-09T23:27:35.170Z,101165.31
2024-05-09T23:30:12.100Z,101165.67
2024-05-09T23:32:43.762Z,101171.93
2024-05-09T23:35:15.349Z,101168.83
2024-05-09T23:37:46.616Z,101158.39
2024-05-09T23:40:19.151Z,101156.25
2024-05-09T23:42:54.022Z,101158.14
2024-05-09T23:45:25.576Z,101153.76
2024-05-09T23:47:56.842Z,101151.94
2024-05-09T23:50:34.496Z,101153.40
2024-05-09T23:53:10.172Z,101158.58
2024-05-09T23:55:42.529Z,101157.48
2024-05-09T23:58:13.901Z,101151.15
